PWSweather.com
Personal Weather Stations
Station Observations
MAKAWAOWX1
Up Country Maui, Makawao, HI 96768

Up Country MauiMakawao, HI 96768

Lat: 20.856944, Lon: -156.3149667

Elevation: 1500

Station Type: Davis Vantage Pro

Latest ConditionsUpdated 3:50:21 PM HST Sunday, Apr 20, 2014
Currently Today's Max Today's Min Today's Average
Temperature 73.7°F23.2°C 75.9°F24.4°C 64.3°F17.9°C 68.3°F20.2°C
Dew Point 66.8°F19.3°C 67.6°F19.8°C 60.0°F15.6°C 63.8°F17.7°C
Winds 10.7 mph E17.2 kmh E 14.6 mph NE23.5 kmh NE - 8.5 mph 13.7 kmh
Wind Gusts 16.0 mph25.7 kmh 22.0 mph35.4 kmh - -
Humidity 79% 94% 75% 86%
Pressure 30.00 in1015.9 mb 30.07 in1018.3 mb 29.99 in1015.6 mb -
Precipitation - 0.11 in2.8 mm - -
Hour Temp Dew Point Humidity Winds Wind Gusts Pressure Precip Precip Rate Daily Precip Total
03:50 PM 73.7°F23.2°C 66.8°F19.3°C 79% 10.7 mph E17.2 kmh E 16.0 mph25.7 kmh 30.00 in1015.9 mb 0.00 in0.0 mm 0.00 in/hr0.0 mm/hr 0.11 in2.8 mm
03:40 PM 74.5°F23.6°C 66.8°F19.3°C 77% 7.1 mph ENE11.4 kmh ENE 11.0 mph17.7 kmh 30.00 in1015.9 mb 0.00 in0.0 mm 0.00 in/hr0.0 mm/hr 0.11 in2.8 mm
03:30 PM 73.8°F23.2°C 66.5°F19.2°C 78% 11.2 mph ENE18.0 kmh ENE 13.0 mph20.9 kmh 30.00 in1015.9 mb 0.00 in0.0 mm 0.00 in/hr0.0 mm/hr 0.11 in2.8 mm
03:20 PM 74.1°F23.4°C 67.2°F19.6°C 79% 12.7 mph ENE20.4 kmh ENE 22.0 mph35.4 kmh 30.00 in1015.9 mb 0.00 in0.0 mm 0.00 in/hr0.0 mm/hr 0.11 in2.8 mm
03:10 PM 73.5°F23.1°C 66.2°F19.0°C 78% 12.3 mph ENE19.8 kmh ENE 18.0 mph29.0 kmh 30.00 in1015.9 mb 0.00 in0.0 mm 0.00 in/hr0.0 mm/hr 0.11 in2.8 mm
03:00 PM 73.2°F22.9°C 65.9°F18.8°C 78% 6.5 mph ENE10.5 kmh ENE 11.0 mph17.7 kmh 30.00 in1015.9 mb 0.00 in0.0 mm 0.00 in/hr0.0 mm/hr 0.11 in2.8 mm
02:50 PM 73.5°F23.1°C 65.8°F18.8°C 77% 10.1 mph ENE16.3 kmh ENE 22.0 mph35.4 kmh 29.99 in1015.6 mb 0.00 in0.0 mm 0.00 in/hr0.0 mm/hr 0.11 in2.8 mm
02:40 PM 74.0°F23.3°C 66.0°F18.9°C 76% 10.2 mph ESE16.4 kmh ESE 15.0 mph24.1 kmh 29.99 in1015.6 mb 0.00 in0.0 mm 0.00 in/hr0.0 mm/hr 0.11 in2.8 mm
02:30 PM 74.4°F23.6°C 66.0°F18.9°C 75% 8.9 mph NE14.3 kmh NE 13.0 mph20.9 kmh 30.00 in1015.9 mb 0.00 in0.0 mm 0.00 in/hr0.0 mm/hr 0.11 in2.8 mm
02:20 PM 74.9°F23.8°C 66.5°F19.2°C 75% 10.1 mph E16.3 kmh E 15.0 mph24.1 kmh 30.01 in1016.3 mb 0.00 in0.0 mm 0.00 in/hr0.0 mm/hr 0.11 in2.8 mm
02:10 PM 74.8°F23.8°C 67.1°F19.5°C 77% 13.4 mph NE21.6 kmh NE 17.0 mph27.4 kmh 30.01 in1016.3 mb 0.00 in0.0 mm 0.00 in/hr0.0 mm/hr 0.11 in2.8 mm
02:00 PM 74.8°F23.8°C 67.1°F19.5°C 77% 6.6 mph ENE10.6 kmh ENE 13.0 mph20.9 kmh 30.01 in1016.3 mb 0.00 in0.0 mm 0.00 in/hr0.0 mm/hr 0.11 in2.8 mm
01:50 PM 74.6°F23.7°C 66.5°F19.2°C 76% 6.3 mph E10.1 kmh E 9.0 mph14.5 kmh 30.02 in1016.6 mb 0.00 in0.0 mm 0.00 in/hr0.0 mm/hr 0.11 in2.8 mm
01:40 PM 75.9°F24.4°C 67.4°F19.7°C 75% 13.4 mph E21.6 kmh E 18.0 mph29.0 kmh 30.03 in1016.9 mb 0.00 in0.0 mm 0.00 in/hr0.0 mm/hr 0.11 in2.8 mm
01:30 PM 75.6°F24.2°C 67.5°F19.7°C 76% 11.4 mph E18.3 kmh E 14.0 mph22.5 kmh 30.03 in1016.9 mb 0.00 in0.0 mm 0.00 in/hr0.0 mm/hr 0.11 in2.8 mm
01:20 PM 74.5°F23.6°C 66.0°F18.9°C 75% 11.1 mph ENE17.9 kmh ENE 17.0 mph27.4 kmh 30.03 in1016.9 mb 0.00 in0.0 mm 0.00 in/hr0.0 mm/hr 0.11 in2.8 mm
01:10 PM 75.6°F24.2°C 67.1°F19.5°C 75% 6.6 mph E10.6 kmh E 10.0 mph16.1 kmh 30.04 in1017.3 mb 0.00 in0.0 mm 0.00 in/hr0.0 mm/hr 0.11 in2.8 mm
01:00 PM 74.6°F23.7°C 67.6°F19.8°C 79% 10.4 mph E16.7 kmh E 16.0 mph25.7 kmh 30.04 in1017.3 mb 0.00 in0.0 mm 0.00 in/hr0.0 mm/hr 0.11 in2.8 mm
12:50 PM 72.1°F22.3°C 66.6°F19.2°C 83% 8.8 mph E14.2 kmh E 20.0 mph32.2 kmh 30.04 in1017.3 mb 0.00 in0.0 mm 0.00 in/hr0.0 mm/hr 0.11 in2.8 mm
12:40 PM 70.0°F21.1°C 65.6°F18.7°C 86% 11.8 mph ENE19.0 kmh ENE 15.0 mph24.1 kmh 30.04 in1017.3 mb 0.00 in0.0 mm 0.00 in/hr0.0 mm/hr 0.11 in2.8 mm
12:30 PM 69.6°F20.9°C 65.6°F18.7°C 87% 10.1 mph E16.3 kmh E 16.0 mph25.7 kmh 30.06 in1017.9 mb 0.00 in0.0 mm 0.00 in/hr0.0 mm/hr 0.11 in2.8 mm
12:20 PM 69.4°F20.8°C 65.4°F18.6°C 87% 8.2 mph E13.2 kmh E 11.0 mph17.7 kmh 30.05 in1017.6 mb 0.00 in0.0 mm 0.00 in/hr0.0 mm/hr 0.11 in2.8 mm
12:10 PM 70.0°F21.1°C 66.0°F18.9°C 87% 5.9 mph ENE9.5 kmh ENE 10.0 mph16.1 kmh 30.05 in1017.6 mb 0.00 in0.0 mm 0.00 in/hr0.0 mm/hr 0.11 in2.8 mm
12:00 PM 70.0°F21.1°C 65.6°F18.7°C 86% 10.0 mph E16.1 kmh E 15.0 mph24.1 kmh 30.05 in1017.6 mb 0.00 in0.0 mm 0.00 in/hr0.0 mm/hr 0.11 in2.8 mm
11:50 AM 70.4°F21.3°C 66.3°F19.1°C 87% 6.2 mph E10.0 kmh E 8.0 mph12.9 kmh 30.05 in1017.6 mb 0.00 in0.0 mm 0.00 in/hr0.0 mm/hr 0.11 in2.8 mm
11:40 AM 70.5°F21.4°C 66.7°F19.3°C 88% 6.8 mph E10.9 kmh E 8.0 mph12.9 kmh 30.05 in1017.6 mb 0.01 in0.3 mm 0.06 in/hr1.5 mm/hr 0.11 in2.8 mm
11:30 AM 70.1°F21.2°C 66.1°F18.9°C 87% 8.3 mph ENE13.4 kmh ENE 11.0 mph17.7 kmh 30.05 in1017.6 mb 0.01 in0.3 mm 0.06 in/hr1.5 mm/hr 0.11 in2.8 mm
11:20 AM 70.4°F21.3°C 66.0°F18.9°C 86% 4.2 mph ENE6.8 kmh ENE 9.0 mph14.5 kmh 30.05 in1017.6 mb 0.00 in0.0 mm 0.00 in/hr0.0 mm/hr 0.10 in2.5 mm
11:10 AM 70.8°F21.6°C 65.7°F18.7°C 84% 8.4 mph E13.5 kmh E 13.0 mph20.9 kmh 30.06 in1017.9 mb 0.00 in0.0 mm 0.00 in/hr0.0 mm/hr 0.10 in2.5 mm
11:00 AM 71.2°F21.8°C 65.4°F18.6°C 82% 10.8 mph NE17.4 kmh NE 13.0 mph20.9 kmh 30.06 in1017.9 mb 0.00 in0.0 mm 0.00 in/hr0.0 mm/hr 0.10 in2.5 mm
10:50 AM 71.0°F21.7°C 65.9°F18.8°C 84% 7.9 mph ENE12.7 kmh ENE 15.0 mph24.1 kmh 30.06 in1017.9 mb 0.00 in0.0 mm 0.00 in/hr0.0 mm/hr 0.10 in2.5 mm
10:40 AM 70.3°F21.3°C 65.9°F18.8°C 86% 11.0 mph ENE17.7 kmh ENE 17.0 mph27.4 kmh 30.06 in1017.9 mb 0.00 in0.0 mm 0.00 in/hr0.0 mm/hr 0.10 in2.5 mm
10:30 AM 69.5°F20.8°C 65.5°F18.6°C 87% 10.9 mph E17.5 kmh E 19.0 mph30.6 kmh 30.06 in1017.9 mb 0.00 in0.0 mm 0.00 in/hr0.0 mm/hr 0.10 in2.5 mm
10:20 AM 68.9°F20.5°C 64.5°F18.1°C 86% 8.1 mph ENE13.0 kmh ENE 17.0 mph27.4 kmh 30.07 in1018.3 mb 0.00 in0.0 mm 0.00 in/hr0.0 mm/hr 0.10 in2.5 mm
10:10 AM 68.7°F20.4°C 64.7°F18.2°C 87% 8.3 mph ENE13.4 kmh ENE 14.0 mph22.5 kmh 30.07 in1018.3 mb 0.00 in0.0 mm 0.00 in/hr0.0 mm/hr 0.10 in2.5 mm
10:00 AM 68.6°F20.3°C 64.9°F18.3°C 88% 7.6 mph E12.2 kmh E 16.0 mph25.7 kmh 30.07 in1018.3 mb 0.00 in0.0 mm 0.00 in/hr0.0 mm/hr 0.10 in2.5 mm
09:50 AM 69.0°F20.6°C 65.0°F18.3°C 87% 10.9 mph ENE17.5 kmh ENE 13.0 mph20.9 kmh 30.07 in1018.3 mb 0.00 in0.0 mm 0.00 in/hr0.0 mm/hr 0.10 in2.5 mm
09:40 AM 69.4°F20.8°C 65.0°F18.3°C 86% 9.1 mph E14.6 kmh E 13.0 mph20.9 kmh 30.07 in1018.3 mb 0.00 in0.0 mm 0.00 in/hr0.0 mm/hr 0.10 in2.5 mm
09:30 AM 69.0°F20.6°C 64.3°F17.9°C 85% 14.6 mph NE23.5 kmh NE 17.0 mph27.4 kmh 30.07 in1018.3 mb 0.00 in0.0 mm 0.00 in/hr0.0 mm/hr 0.10 in2.5 mm
09:20 AM 68.8°F20.4°C 64.4°F18.0°C 86% 10.1 mph ENE16.3 kmh ENE 15.0 mph24.1 kmh 30.07 in1018.3 mb 0.00 in0.0 mm 0.00 in/hr0.0 mm/hr 0.10 in2.5 mm
09:10 AM 68.6°F20.3°C 64.2°F17.9°C 86% 9.9 mph NE15.9 kmh NE 18.0 mph29.0 kmh 30.07 in1018.3 mb 0.00 in0.0 mm 0.00 in/hr0.0 mm/hr 0.10 in2.5 mm
09:00 AM 68.3°F20.2°C 63.3°F17.4°C 84% 10.9 mph NE17.5 kmh NE 17.0 mph27.4 kmh 30.06 in1017.9 mb 0.00 in0.0 mm 0.00 in/hr0.0 mm/hr 0.10 in2.5 mm
08:50 AM 68.5°F20.3°C 63.5°F17.5°C 84% 11.4 mph ENE18.3 kmh ENE 15.0 mph24.1 kmh 30.06 in1017.9 mb 0.00 in0.0 mm 0.00 in/hr0.0 mm/hr 0.10 in2.5 mm
08:40 AM 68.4°F20.2°C 63.0°F17.2°C 83% 8.6 mph E13.8 kmh E 10.0 mph16.1 kmh 30.06 in1017.9 mb 0.00 in0.0 mm 0.00 in/hr0.0 mm/hr 0.10 in2.5 mm
08:30 AM 68.1°F20.1°C 63.1°F17.3°C 84% 7.9 mph ENE12.7 kmh ENE 11.0 mph17.7 kmh 30.06 in1017.9 mb 0.00 in0.0 mm 0.00 in/hr0.0 mm/hr 0.10 in2.5 mm
08:20 AM 67.8°F19.9°C 62.8°F17.1°C 84% 12.5 mph E20.1 kmh E 20.0 mph32.2 kmh 30.06 in1017.9 mb 0.00 in0.0 mm 0.00 in/hr0.0 mm/hr 0.10 in2.5 mm
08:10 AM 67.5°F19.7°C 63.2°F17.3°C 86% 8.3 mph ENE13.4 kmh ENE 15.0 mph24.1 kmh 30.05 in1017.6 mb 0.00 in0.0 mm 0.00 in/hr0.0 mm/hr 0.10 in2.5 mm
08:00 AM 67.4°F19.7°C 63.0°F17.2°C 86% 10.9 mph ENE17.5 kmh ENE 14.0 mph22.5 kmh 30.04 in1017.3 mb 0.00 in0.0 mm 0.00 in/hr0.0 mm/hr 0.10 in2.5 mm
07:50 AM 67.1°F19.5°C 63.4°F17.4°C 88% 6.8 mph E10.9 kmh E 17.0 mph27.4 kmh 30.03 in1016.9 mb 0.00 in0.0 mm 0.00 in/hr0.0 mm/hr 0.10 in2.5 mm
07:40 AM 67.0°F19.4°C 63.0°F17.2°C 87% 5.7 mph ENE9.2 kmh ENE 11.0 mph17.7 kmh 30.03 in1016.9 mb 0.00 in0.0 mm 0.00 in/hr0.0 mm/hr 0.10 in2.5 mm
07:30 AM 66.8°F19.3°C 61.8°F16.6°C 84% 9.3 mph NE15.0 kmh NE 15.0 mph24.1 kmh 30.03 in1016.9 mb 0.00 in0.0 mm 0.00 in/hr0.0 mm/hr 0.10 in2.5 mm
07:20 AM 66.4°F19.1°C 62.1°F16.7°C 86% 6.6 mph E10.6 kmh E 10.0 mph16.1 kmh 30.03 in1016.9 mb 0.00 in0.0 mm 0.00 in/hr0.0 mm/hr 0.10 in2.5 mm
07:10 AM 66.2°F19.0°C 61.6°F16.4°C 85% 10.2 mph E16.4 kmh E 14.0 mph22.5 kmh 30.03 in1016.9 mb 0.00 in0.0 mm 0.00 in/hr0.0 mm/hr 0.10 in2.5 mm
07:00 AM 65.9°F18.8°C 60.9°F16.1°C 84% 6.7 mph E10.8 kmh E 13.0 mph20.9 kmh 30.03 in1016.9 mb 0.00 in0.0 mm 0.00 in/hr0.0 mm/hr 0.10 in2.5 mm
06:50 AM 66.0°F18.9°C 60.7°F15.9°C 83% 7.1 mph ENE11.4 kmh ENE 10.0 mph16.1 kmh 30.03 in1016.9 mb 0.00 in0.0 mm 0.00 in/hr0.0 mm/hr 0.10 in2.5 mm
06:40 AM 65.0°F18.3°C 60.0°F15.6°C 84% 4.8 mph E7.7 kmh E 9.0 mph14.5 kmh 30.02 in1016.6 mb 0.00 in0.0 mm 0.00 in/hr0.0 mm/hr 0.10 in2.5 mm
06:30 AM 65.1°F18.4°C 60.5°F15.8°C 85% 5.7 mph ENE9.2 kmh ENE 7.0 mph11.3 kmh 30.02 in1016.6 mb 0.00 in0.0 mm 0.00 in/hr0.0 mm/hr 0.10 in2.5 mm
06:20 AM 65.1°F18.4°C 60.5°F15.8°C 85% 3.0 mph E4.8 kmh E 9.0 mph14.5 kmh 30.01 in1016.3 mb 0.00 in0.0 mm 0.00 in/hr0.0 mm/hr 0.10 in2.5 mm
06:10 AM 64.9°F18.3°C 60.6°F15.9°C 86% 8.1 mph ENE13.0 kmh ENE 14.0 mph22.5 kmh 30.01 in1016.3 mb 0.00 in0.0 mm 0.00 in/hr0.0 mm/hr 0.10 in2.5 mm
06:00 AM 64.5°F18.1°C 61.2°F16.2°C 89% 9.6 mph E15.4 kmh E 18.0 mph29.0 kmh 30.01 in1016.3 mb 0.00 in0.0 mm 0.00 in/hr0.0 mm/hr 0.10 in2.5 mm
05:50 AM 64.3°F17.9°C 61.6°F16.4°C 91% 10.1 mph E16.3 kmh E 12.0 mph19.3 kmh 30.01 in1016.3 mb 0.01 in0.3 mm 0.06 in/hr1.5 mm/hr 0.10 in2.5 mm
05:40 AM 64.7°F18.2°C 62.3°F16.8°C 92% 3.3 mph E5.3 kmh E 7.0 mph11.3 kmh 30.02 in1016.6 mb 0.00 in0.0 mm 0.00 in/hr0.0 mm/hr 0.09 in2.3 mm
05:30 AM 64.8°F18.2°C 62.1°F16.7°C 91% 4.7 mph ENE7.6 kmh ENE 7.0 mph11.3 kmh 30.01 in1016.3 mb 0.01 in0.3 mm 0.06 in/hr1.5 mm/hr 0.09 in2.3 mm
05:20 AM 64.9°F18.3°C 61.9°F16.6°C 90% 6.8 mph ENE10.9 kmh ENE 14.0 mph22.5 kmh 30.01 in1016.3 mb 0.00 in0.0 mm 0.00 in/hr0.0 mm/hr 0.08 in2.0 mm
05:10 AM 65.2°F18.4°C 62.2°F16.8°C 90% 10.2 mph ENE16.4 kmh ENE 14.0 mph22.5 kmh 30.01 in1016.3 mb 0.00 in0.0 mm 0.00 in/hr0.0 mm/hr 0.08 in2.0 mm
05:00 AM 65.1°F18.4°C 62.4°F16.9°C 91% 7.0 mph ENE11.3 kmh ENE 14.0 mph22.5 kmh 30.00 in1015.9 mb 0.00 in0.0 mm 0.00 in/hr0.0 mm/hr 0.08 in2.0 mm
04:50 AM 64.9°F18.3°C 62.5°F16.9°C 92% 9.1 mph NNE14.6 kmh NNE 11.0 mph17.7 kmh 30.00 in1015.9 mb 0.00 in0.0 mm 0.00 in/hr0.0 mm/hr 0.08 in2.0 mm
04:40 AM 65.0°F18.3°C 62.6°F17.0°C 92% 5.2 mph ENE8.4 kmh ENE 7.0 mph11.3 kmh 30.00 in1015.9 mb 0.00 in0.0 mm 0.00 in/hr0.0 mm/hr 0.08 in2.0 mm
04:30 AM 64.8°F18.2°C 62.4°F16.9°C 92% 8.5 mph ENE13.7 kmh ENE 12.0 mph19.3 kmh 30.00 in1015.9 mb 0.00 in0.0 mm 0.00 in/hr0.0 mm/hr 0.08 in2.0 mm
04:20 AM 64.7°F18.2°C 62.3°F16.8°C 92% 10.4 mph E16.7 kmh E 19.0 mph30.6 kmh 30.00 in1015.9 mb 0.00 in0.0 mm 0.00 in/hr0.0 mm/hr 0.08 in2.0 mm
04:10 AM 64.7°F18.2°C 61.7°F16.5°C 90% 6.0 mph E9.7 kmh E 6.0 mph9.7 kmh 30.00 in1015.9 mb 0.00 in0.0 mm 0.00 in/hr0.0 mm/hr 0.08 in2.0 mm
04:00 AM 64.9°F18.3°C 61.6°F16.4°C 89% 4.6 mph ENE7.4 kmh ENE 10.0 mph16.1 kmh 30.00 in1015.9 mb 0.00 in0.0 mm 0.00 in/hr0.0 mm/hr 0.08 in2.0 mm
03:50 AM 64.9°F18.3°C 61.6°F16.4°C 89% 8.2 mph E13.2 kmh E 13.0 mph20.9 kmh 30.00 in1015.9 mb 0.00 in0.0 mm 0.00 in/hr0.0 mm/hr 0.08 in2.0 mm
03:40 AM 64.9°F18.3°C 61.9°F16.6°C 90% 7.5 mph E12.1 kmh E 15.0 mph24.1 kmh 30.00 in1015.9 mb 0.00 in0.0 mm 0.00 in/hr0.0 mm/hr 0.08 in2.0 mm
03:30 AM 65.0°F18.3°C 62.0°F16.7°C 90% 4.4 mph ESE7.1 kmh ESE 8.0 mph12.9 kmh 30.00 in1015.9 mb 0.00 in0.0 mm 0.00 in/hr0.0 mm/hr 0.08 in2.0 mm
03:20 AM 65.0°F18.3°C 62.3°F16.8°C 91% 6.2 mph E10.0 kmh E 9.0 mph14.5 kmh 30.00 in1015.9 mb 0.00 in0.0 mm 0.00 in/hr0.0 mm/hr 0.08 in2.0 mm
03:10 AM 65.2°F18.4°C 62.5°F16.9°C 91% 7.9 mph E12.7 kmh E 14.0 mph22.5 kmh 30.00 in1015.9 mb 0.00 in0.0 mm 0.00 in/hr0.0 mm/hr 0.08 in2.0 mm
03:00 AM 65.2°F18.4°C 62.8°F17.1°C 92% 8.2 mph E13.2 kmh E 13.0 mph20.9 kmh 30.01 in1016.3 mb 0.00 in0.0 mm 0.00 in/hr0.0 mm/hr 0.08 in2.0 mm
02:50 AM 65.3°F18.5°C 62.9°F17.2°C 92% 4.3 mph E6.9 kmh E 9.0 mph14.5 kmh 30.01 in1016.3 mb 0.01 in0.3 mm 0.06 in/hr1.5 mm/hr 0.08 in2.0 mm
02:40 AM 65.3°F18.5°C 62.9°F17.2°C 92% 8.3 mph ENE13.4 kmh ENE 13.0 mph20.9 kmh 30.01 in1016.3 mb 0.00 in0.0 mm 0.00 in/hr0.0 mm/hr 0.08 in2.0 mm
02:30 AM 65.3°F18.5°C 62.9°F17.2°C 92% 8.0 mph ENE12.9 kmh ENE 12.0 mph19.3 kmh 30.01 in1016.3 mb 0.00 in0.0 mm 0.00 in/hr0.0 mm/hr 0.07 in1.8 mm
02:20 AM 65.4°F18.6°C 63.0°F17.2°C 92% 8.6 mph NE13.8 kmh NE 16.0 mph25.7 kmh 30.02 in1016.6 mb 0.00 in0.0 mm 0.00 in/hr0.0 mm/hr 0.07 in1.8 mm
02:10 AM 65.4°F18.6°C 63.0°F17.2°C 92% 8.7 mph E14.0 kmh E 9.0 mph14.5 kmh 30.02 in1016.6 mb 0.00 in0.0 mm 0.00 in/hr0.0 mm/hr 0.07 in1.8 mm
02:00 AM 65.4°F18.6°C 63.3°F17.4°C 93% 7.6 mph E12.2 kmh E 12.0 mph19.3 kmh 30.02 in1016.6 mb 0.01 in0.3 mm 0.01 in/hr0.3 mm/hr 0.07 in1.8 mm
01:50 AM 65.3°F18.5°C 63.2°F17.3°C 93% 5.5 mph ENE8.9 kmh ENE 11.0 mph17.7 kmh 30.02 in1016.6 mb 0.01 in0.3 mm 0.06 in/hr1.5 mm/hr 0.07 in1.8 mm
01:40 AM 65.2°F18.4°C 63.4°F17.4°C 94% 9.2 mph ENE14.8 kmh ENE 17.0 mph27.4 kmh 30.02 in1016.6 mb 0.00 in0.0 mm 0.00 in/hr0.0 mm/hr 0.06 in1.5 mm
01:30 AM 64.9°F18.3°C 63.1°F17.3°C 94% 8.5 mph E13.7 kmh E 11.0 mph17.7 kmh 30.02 in1016.6 mb 0.02 in0.5 mm 0.12 in/hr3.0 mm/hr 0.06 in1.5 mm
01:20 AM 64.7°F18.2°C 62.3°F16.8°C 92% 6.3 mph E10.1 kmh E 15.0 mph24.1 kmh 30.03 in1016.9 mb 0.02 in0.5 mm 0.12 in/hr3.0 mm/hr 0.04 in1.0 mm
01:10 AM 64.8°F18.2°C 62.1°F16.7°C 91% 8.8 mph E14.2 kmh E 12.0 mph19.3 kmh 30.03 in1016.9 mb 0.01 in0.3 mm 0.06 in/hr1.5 mm/hr 0.02 in0.5 mm
01:00 AM 64.9°F18.3°C 61.9°F16.6°C 90% 10.2 mph ENE16.4 kmh ENE 14.0 mph22.5 kmh 30.04 in1017.3 mb 0.00 in0.0 mm 0.00 in/hr0.0 mm/hr 0.01 in0.3 mm
12:50 AM 65.4°F18.6°C 62.4°F16.9°C 90% 9.6 mph ENE15.4 kmh ENE 14.0 mph22.5 kmh 30.04 in1017.3 mb 0.01 in0.3 mm 0.06 in/hr1.5 mm/hr 0.01 in0.3 mm
12:40 AM 65.5°F18.6°C 61.9°F16.6°C 88% 5.2 mph E8.4 kmh E 10.0 mph16.1 kmh 30.04 in1017.3 mb 0.00 in0.0 mm 0.00 in/hr0.0 mm/hr 0.01 in0.3 mm
12:30 AM 65.4°F18.6°C 61.7°F16.5°C 88% 9.8 mph ESE15.8 kmh ESE 15.0 mph24.1 kmh 30.04 in1017.3 mb 0.00 in0.0 mm 0.00 in/hr0.0 mm/hr 0.01 in0.3 mm
12:20 AM 65.2°F18.4°C 61.9°F16.6°C 89% 7.3 mph E11.7 kmh E 9.0 mph14.5 kmh 30.04 in1017.3 mb 0.00 in0.0 mm 0.00 in/hr0.0 mm/hr 0.01 in0.3 mm
12:10 AM 65.1°F18.4°C 62.4°F16.9°C 91% 12.3 mph E19.8 kmh E 21.0 mph33.8 kmh 30.04 in1017.3 mb 0.00 in0.0 mm 0.00 in/hr0.0 mm/hr 0.01 in0.3 mm
12:00 AM 64.9°F18.3°C 62.2°F16.8°C 91% 11.7 mph E18.8 kmh E 21.0 mph33.8 kmh 30.04 in1017.3 mb 0.01 in0.3 mm 0.00 in/hr0.0 mm/hr 0.01 in0.3 mm